• Join FlightAware (Why Join?)
  • Login
  • US Flag GB Flag 
03:31 EDT


 

Airport Tracker/Info


-or-


 

Live Flight TrackerFlight Track Log ✈ AAY876 ✈ 25-Mar-2014 ✈ KPIE - KRFD

Flight Track Log - Related Links

Times and Time Zones

All times are in EDT time to prevent confusion due to time zone crossing. See the AAY876 flight status page for this flight to view local times or setup timezone preferences in your user account.

Time Position Orientation Groundspeed Altitude Reporting Facility
EDT Latitude Longitude Course Direction KTS MPH feet Rate Location/Type
14:48 27.9167 -82.6833 350° North 146 168 700  Level Tampa TRACON
14:49 27.9833 -82.6667 12° North 202 232 2,800 1,920 Climbing Tampa TRACON
14:50 28.0333 -82.6833 344° North 256 295 4,800 1,740 Climbing Tampa TRACON
14:51 28.1167 -82.6833 360° North 267 307 6,300 1,980 Climbing Tampa TRACON
14:52 28.5085 -82.8105 348° North  Level FlightAware Approximate
14:53 28.6100 -82.8320 350° North  Level FlightAware Approximate
14:54 28.3731 -82.7392 349° North 329 379 13,300  Level Jacksonville Center
14:55 28.4711 -82.7628 348° North 340 391 16,100 2,520 Climbing Jacksonville Center
14:56 28.5653 -82.7861 348° North 340 391 18,400 2,100 Climbing Jacksonville Center
14:57 28.6653 -82.8122 347° North 350 403 20,300 1,680 Climbing Jacksonville Center
14:58 28.7550 -82.8333 348° North 356 410 21,800 1,800 Climbing Jacksonville Center
14:59 28.8553 -82.8736 341° North 366 421 24,000 1,860 Climbing Jacksonville Center
15:00 28.9556 -82.9117 342° North 371 427 25,600 1,560 Climbing Jacksonville Center
15:01 29.0578 -82.9519 341° North 376 433 27,200 1,320 Climbing Jacksonville Center
15:02 29.1600 -82.9947 340° North 381 438 28,300 1,200 Climbing Jacksonville Center
15:03 29.2664 -83.0353 342° North 391 450 29,600 840 Climbing Jacksonville Center
15:04 29.3728 -83.0783 341° North 396 456 30,000 180 Climbing Jacksonville Center
15:05 29.4939 -83.1311 339° North 409 471 30,000  Level Jacksonville Center
15:06 29.6003 -83.1719 342° North 408 470 30,000  Level Jacksonville Center
15:07 29.7086 -83.2153 341° North 408 470 30,000  Level Jacksonville Center
15:08 29.8150 -83.2589 340° North 408 470 30,000  Level Jacksonville Center
15:09 29.9256 -83.3025 341° North 408 470 30,000  Level Jacksonville Center
15:10 30.0297 -83.3436 341° North 408 470 30,000 300 Level Jacksonville Center
15:11 30.1383 -83.3875 341° North 408 470 30,600 780 Climbing Jacksonville Center
15:12 30.2486 -83.4311 341° North 408 470 31,600 1,140 Climbing Jacksonville Center
15:13 30.3550 -83.4750 340° North 408 470 32,900 1,140 Climbing Jacksonville Center
15:14 30.4611 -83.5192 340° North 408 470 33,900 1,020 Climbing Jacksonville Center
15:15 30.5656 -83.5608 341° North 408 470 35,000 960 Climbing Jacksonville Center
15:16 30.6550 -83.5978 340° North 396 456 35,900 480 Climbing Jacksonville Center
15:17 30.7572 -83.6394 341° North 390 449 36,000  Climbing Jacksonville Center
15:18 30.8611 -83.6839 340° North 390 449 36,000  Level Jacksonville Center
15:19 30.9592 -83.7236 341° North 385 443 36,000  Level Jacksonville Center
15:20 31.0611 -83.7656 341° North 385 443 36,000  Level Jacksonville Center
15:21 31.1611 -83.8078 340° North 385 443 36,000  Level Jacksonville Center
15:22 31.2608 -83.8500 340° North 385 443 36,000  Level Jacksonville Center
15:24 31.4919 -83.9489 340° North 398 458 36,100  Climbing Atlanta Center
15:25 31.6006 -83.9778 347° North 393 452 36,000 -60 Descending Atlanta Center
15:26 31.7092 -84.0022 349° North 393 452 36,000  Level Atlanta Center
15:27 31.8217 -84.0267 350° North 393 452 36,000  Level Atlanta Center
15:28 31.9408 -84.0511 350° North 393 452 36,100  Climbing Atlanta Center
15:29 32.0492 -84.0756 349° North 393 452 36,000 -60 Descending Atlanta Center
15:30 32.1536 -84.1003 349° North 388 447 36,000  Level Atlanta Center
15:31 32.2622 -84.1247 349° North 393 452 36,000  Level Atlanta Center
15:32 32.3686 -84.1494 349° North 393 452 36,000  Level Atlanta Center
15:33 32.4769 -84.1719 350° North 393 452 36,000  Level Atlanta Center
15:34 32.5836 -84.1967 349° North 393 452 36,000  Level Atlanta Center
15:35 32.6919 -84.2214 349° North 393 452 36,000  Level Atlanta Center
15:36 32.7797 -84.2414 349° North 393 452 36,000  Level Atlanta Center
15:37 32.9006 -84.2739 347° North 393 452 36,000  Level Atlanta Center
15:38 33.0092 -84.2989 349° North 393 452 36,000 -60 Level Atlanta Center
15:39 33.1156 -84.3242 349° North 388 447 35,900  Descending Atlanta Center
15:40 33.2197 -84.3467 350° North 388 447 36,000  Climbing Atlanta Center
15:41 33.3261 -84.3694 350° North 388 447 36,000  Level Atlanta Center
15:46 33.9247 -84.5066 348° North 394 453 36,100  Climbing FlightAware ADS-B (KDZJ)
15:47 34.0000 -84.5249 349° North 396 456 36,100 -120 Level FlightAware ADS-B (KDZJ)
15:47 34.0752 -84.5431 348° North 397 457 36,000 -120 Descending FlightAware ADS-B (KDZJ)
15:48 34.1484 -84.5609 348° North 397 457 36,000  Level FlightAware ADS-B (KDZJ)
15:49 34.2235 -84.5793 348° North 408 470 36,000  Level FlightAware ADS-B (KDZJ)
15:49 34.2979 -84.5976 348° North 409 471 36,000  Level FlightAware ADS-B (KDZJ)
15:50 34.3744 -84.6162 349° North 410 472 36,000 60 Level FlightAware ADS-B (KDZJ)
15:51 34.4495 -84.6343 349° North 410 472 36,100 60 Climbing FlightAware ADS-B (KDZJ)
15:51 34.5247 -84.6527 348° North 409 471 36,100 -60 Level FlightAware ADS-B (KDZJ)
15:52 34.6386 -84.6808 348° North 412 474 36,000 -60 Descending FlightAware ADS-B (KDZJ)
15:53 34.7133 -84.6994 349° North 409 471 36,000  Level FlightAware ADS-B (KDZJ)
15:54 34.7884 -84.7180 349° North 407 468 36,000  Level FlightAware ADS-B (KDZJ)
15:54 34.8619 -84.7363 348° North 399 459 36,000 60 Level FlightAware ADS-B (KDZJ)
15:55 34.9338 -84.7540 348° North 393 452 36,100  Climbing FlightAware ADS-B (KDZJ)
15:56 35.0070 -84.7722 348° North 397 457 36,000  Descending FlightAware ADS-B (KDZJ)
15:56 35.0783 -84.7901 348° North 393 452 36,100  Climbing FlightAware ADS-B (KDZJ)
15:58 35.2059 -84.8222 348° North 391 450 36,000 -60 Descending FlightAware ADS-B (KMDQ)
15:59 35.2707 -84.8387 348° North 392 451 36,000  Level FlightAware ADS-B (KMDQ)
16:00 35.3439 -84.8571 349° North 392 451 36,000  Level FlightAware ADS-B (KMDQ)
16:00 35.4182 -84.8759 348° North 393 452 36,000  Level FlightAware ADS-B (KMDQ)
16:01 35.4768 -84.8907 348° North 394 453 36,000  Level FlightAware ADS-B (KMDQ)
16:02 35.5980 -84.9213 348° North 393 452 36,000  Level FlightAware ADS-B (KMDQ)
16:03 35.6623 -84.9376 348° North 397 457 36,000 60 Level FlightAware ADS-B (KMDQ)
16:03 35.7299 -84.9547 349° North 398 458 36,100 60 Climbing FlightAware ADS-B (KMDQ)
16:04 35.8111 -84.9755 348° North 396 456 36,100 -60 Level FlightAware ADS-B (KMDQ)
16:05 35.9003 -84.9983 348° North 396 456 36,000 -60 Descending FlightAware ADS-B (KMDQ)
16:06 35.9880 -85.0206 348° North 397 457 36,000  Level FlightAware ADS-B (KMDQ)
16:06 36.0404 -85.0341 348° North 398 458 36,000  Level FlightAware ADS-B (KMDQ)
16:07 36.1378 -85.0587 348° North 399 459 36,000  Level FlightAware ADS-B (KMDQ)
16:08 36.2027 -85.0755 348° North 401 461 36,000  Level FlightAware ADS-B (KMDQ)
16:08 36.2808 -85.0956 348° North 403 464 36,000  Level FlightAware ADS-B (KMDQ)
16:09 36.3553 -85.1149 348° North 404 465 36,000  Level FlightAware ADS-B (KMDQ)
16:10 36.4298 -85.1339 348° North 404 465 36,000  Level FlightAware ADS-B (KMDQ)
16:10 36.4958 -85.1511 348° North 403 464 36,000  Level FlightAware ADS-B (KMDQ)
16:11 36.5140 -85.1558 348° North 403 464 36,000  Level FlightAware ADS-B (KMDQ)
16:12 36.6464 -85.1902 348° North 402 463 36,000 60 Level FlightAware ADS-B
16:12 36.7169 -85.2087 348° North 400 460 36,100  Climbing FlightAware ADS-B
16:13 36.7978 -85.2299 348° North 398 458 36,000 -120 Descending FlightAware ADS-B
16:14 36.8467 -85.2427 348° North 397 457 36,000  Level FlightAware ADS-B
16:14 36.9070 -85.2586 348° North 397 457 36,000  Level FlightAware ADS-B
16:15 36.9878 -85.2798 348° North 396 456 36,000  Level FlightAware ADS-B
16:15 37.0358 -85.2922 348° North 398 458 36,000  Level FlightAware ADS-B
16:16 37.0890 -85.3062 348° North 399 459 36,000  Level FlightAware ADS-B
16:16 37.1488 -85.3218 348° North 400 460 36,000  Level FlightAware ADS-B
16:17 37.2597 -85.3511 348° North 404 465 36,000  Level FlightAware ADS-B
16:18 37.3171 -85.3663 348° North 405 466 36,000 60 Level FlightAware ADS-B
16:19 37.3986 -85.3883 348° North 404 465 36,100 60 Climbing FlightAware ADS-B
16:19 37.4711 -85.4075 349° North 400 460 36,100  Level FlightAware ADS-B
16:20 37.5549 -85.4293 348° North 397 457 36,100 -120 Level FlightAware ADS-B (KBRY)
16:21 37.6170 -85.4461 348° North 395 455 36,000 -120 Descending FlightAware ADS-B
16:21 37.6700 -85.4604 348° North 394 453 36,000  Level FlightAware ADS-B
16:22 37.7443 -85.4804 348° North 393 452 36,000  Level FlightAware ADS-B
16:22 37.8027 -85.4962 348° North 392 451 36,000  Level FlightAware ADS-B
16:23 37.8563 -85.5106 348° North 393 452 36,000  Level FlightAware ADS-B
16:24 37.9334 -85.5314 348° North 393 452 36,000  Level FlightAware ADS-B
16:24 37.9897 -85.5463 348° North 395 455 36,000  Level FlightAware ADS-B
16:25 38.0431 -85.5609 348° North 395 455 36,000  Level FlightAware ADS-B
16:25 38.1200 -85.5880 339° North 387 445 36,000  Level FlightAware ADS-B
16:26 38.1705 -85.6165 335° Northwest 383 441 36,000  Level FlightAware ADS-B
16:26 38.2191 -85.6452 335° Northwest 383 441 36,000  Level FlightAware ADS-B
16:27 38.2445 -85.6600 335° Northwest 383 441 36,000  Level FlightAware ADS-B
16:28 38.3821 -85.7408 335° Northwest 383 441 36,000  Level FlightAware ADS-B (KBRY)
16:29 38.4784 -85.7978 335° Northwest 383 441 36,000  Level FlightAware ADS-B (KBRY)
16:30 38.5712 -85.8528 335° Northwest 383 441 36,000  Level FlightAware ADS-B (KBRY)
16:31 38.6680 -85.9105 335° Northwest 385 443 36,000  Level FlightAware ADS-B (KBRY)
16:32 38.7705 -85.9717 335° Northwest 387 445 36,000  Level FlightAware ADS-B (KBRY)
16:33 38.8644 -86.0279 335° Northwest 387 445 36,000  Level FlightAware ADS-B (KBRY)
16:34 38.9291 -86.0668 335° Northwest 388 447 36,000  Level FlightAware ADS-B
16:35 39.0548 -86.1422 335° Northwest 388 447 36,000  Level FlightAware ADS-B (KBRY)
16:36 39.1480 -86.1984 335° Northwest 387 445 36,000  Level FlightAware ADS-B
16:37 39.2492 -86.2596 335° Northwest 383 441 36,000  Level FlightAware ADS-B (KBRY)
16:38 39.2234 -86.2440 335° Northwest 384 442 36,000  Level FlightAware ADS-B
16:38 39.1480 -86.1984 335° Northwest 383 441 36,000  Level FlightAware ADS-B
16:39 39.2234 -86.2440 335° Northwest 382 440 36,000  Level FlightAware ADS-B
16:42 39.2234 -86.2440 329° Northwest 378 435 36,000  Level FlightAware ADS-B
16:47 40.1337 -86.9395 324° Northwest 380 437 36,000  Level FlightAware ADS-B (KMDW)
16:48 40.2058 -87.0081 324° Northwest 380 437 36,000  Level FlightAware ADS-B (KMDW)
16:48 40.2451 -87.0456 324° Northwest 379 436 36,000  Level FlightAware ADS-B
16:49 40.3146 -87.1118 324° Northwest 378 435 36,000  Level FlightAware ADS-B (KMDW)
16:50 40.3687 -87.1638 324° Northwest 377 434 36,000  Level FlightAware ADS-B
16:50 40.4167 -87.2096 324° Northwest 374 430 36,000  Level FlightAware ADS-B (KMDW)
16:51 40.4744 -87.2651 324° Northwest 373 429 36,000  Level FlightAware ADS-B (KMDW)
16:51 40.5173 -87.3066 324° Northwest 371 427 36,000 -120 Level FlightAware ADS-B (KMDW)
16:52 40.5476 -87.3357 324° Northwest 371 427 35,900 -480 Descending FlightAware ADS-B
16:52 40.6131 -87.3987 324° Northwest 371 427 35,500 -780 Descending FlightAware ADS-B (KMDW)
16:53 40.6533 -87.4376 324° Northwest 369 425 35,100 -900 Descending FlightAware ADS-B (KMDW)
16:53 40.6947 -87.4777 324° Northwest 370 426 34,600 -1,020 Descending FlightAware ADS-B (KMDW)
16:54 40.7371 -87.5189 323° Northwest 366 421 34,100 -1,020 Descending FlightAware ADS-B (KMDW)
16:54 40.7720 -87.5529 324° Northwest 365 420 33,600 -1,020 Descending FlightAware ADS-B (KMDW)
16:55 40.8185 -87.5984 324° Northwest 359 413 33,100 -1,020 Descending FlightAware ADS-B (KMDW)
16:56 40.8680 -87.6466 323° Northwest 357 411 32,500 -1,020 Descending FlightAware ADS-B
16:56 40.8785 -87.6569 323° Northwest 357 411 32,000 -960 Descending FlightAware ADS-B
16:57 40.9504 -87.7275 324° Northwest 351 404 31,500 -1,020 Descending FlightAware ADS-B (KMDW)
16:57 40.9895 -87.7658 324° Northwest 345 397 31,000 -960 Descending FlightAware ADS-B (KMDW)
16:58 41.0404 -87.8155 323° Northwest 334 384 30,400 -1,020 Descending FlightAware ADS-B (KMDW)
16:58 41.0889 -87.8633 323° Northwest 328 377 29,700 -1,200 Descending FlightAware ADS-B (KMDW)
16:59 41.1246 -87.8987 323° Northwest 323 372 29,000 -1,200 Descending FlightAware ADS-B (KMDW)
16:59 41.1619 -87.9358 323° Northwest 324 373 28,500 -1,020 Descending FlightAware ADS-B (KMDW)
17:00 41.1967 -87.9702 323° Northwest 320 368 28,000 -960 Descending FlightAware ADS-B (KMDW)
17:00 41.2215 -88.0141 295° West 324 373 27,600 -900 Descending FlightAware ADS-B (KMDW)
17:01 41.2309 -88.0397 297° West 320 368 27,100 -1,020 Descending FlightAware ADS-B (KPWK)
17:02 41.2695 -88.1418 297° West 316 364 26,400 -960 Descending FlightAware ADS-B (KMDW)
17:02 41.2892 -88.1932 297° West 314 361 26,000 -960 Descending FlightAware ADS-B (KMDW)
17:03 41.3153 -88.2618 297° West 307 353 25,300 -1,020 Descending FlightAware ADS-B (KMDW)
17:03 41.3402 -88.3276 297° West 306 352 24,700 -1,020 Descending FlightAware ADS-B (KMDW)
17:04 41.3644 -88.3917 297° West 301 346 24,000 -1,020 Descending FlightAware ADS-B (KMDW)
17:05 41.3846 -88.4453 297° West 297 342 23,500 -960 Descending FlightAware ADS-B (KMDW)
17:05 41.4039 -88.4967 297° West 296 341 22,900 -1,020 Descending FlightAware ADS-B (KMDW)
17:06 41.4324 -88.5727 296° West 291 335 22,200 -960 Descending FlightAware ADS-B (KMDW)
17:07 41.4574 -88.6390 297° West 308 354 21,700 -2,160 Descending FlightAware ADS-B (KMDW)
17:07 41.4725 -88.6792 297° West 327 376 19,500 -3,780 Descending FlightAware ADS-B (KPWK)
17:08 41.5032 -88.7614 296° West 333 383 17,300 -3,600 Descending FlightAware ADS-B (KMDW)
17:08 41.5256 -88.8218 296° West 339 390 15,600 -2,040 Descending FlightAware ADS-B (KMDW)
17:09 41.5407 -88.8631 296° West 329 379 15,200 -1,080 Descending FlightAware ADS-B (KMDW)
17:09 41.5680 -88.9369 296° West 299 344 14,500 -1,260 Descending FlightAware ADS-B (KPWK)
17:10 41.5882 -88.9918 296° West 259 298 13,800 -1,200 Descending FlightAware ADS-B (KPWK)
17:11 41.6093 -89.0487 296° West 252 290 13,000 -780 Descending FlightAware ADS-B (KMDW)
17:11 41.6294 -89.1033 296° West 255 293 12,800 -180 Descending FlightAware ADS-B (KMDW)
17:12 41.6559 -89.1750 296° West 236 272 12,800  Level FlightAware ADS-B (KPWK)
17:13 41.6338 -89.1151 296° West 219 252 12,800 -1,140 Level FlightAware ADS-B (KMDW)
17:14 41.7247 -89.2697 296° West 214 246 10,600 -2,040 Descending Chicago Center
17:15 41.7961 -89.2294 23° Northeast 230 265 8,100 -1,740 Descending Chicago Center
17:16 41.8478 -89.2028 21° North 207 238 7,100 -1,320 Descending Chicago Center
17:17 41.8958 -89.1792 20° North 189 217 5,400 -1,500 Descending Chicago Center
17:18 41.9492 -89.1503 22° Northeast 201 231 4,000 -1,140 Descending Chicago Center
17:19 41.9989 -89.1228 22° Northeast 201 231 3,100 -660 Descending Chicago Center
17:20 42.0464 -89.1086 12° North 193 222 2,700 -300 Descending Chicago Center
17:21 42.0928 -89.1017 North 176 203 2,500 -240 Descending Chicago Center
17:23 42.1833 -89.0833 20° North  Level FlightAware Approximate
17:30 42.1954 -89.0972 20° North  Level Estimated